sensor_id;sensor_type;location;lat;lon;timestamp;P1;durP1;ratioP1;P2;durP2;ratioP2
4873;SDS011;2451;49.970;9.068;2023-08-24T00:00:18;9.60;;;7.53;;
4873;SDS011;2451;49.970;9.068;2023-08-24T00:02:44;9.75;;;7.70;;
4873;SDS011;2451;49.970;9.068;2023-08-24T00:05:10;10.40;;;7.63;;
4873;SDS011;2451;49.970;9.068;2023-08-24T00:07:35;10.77;;;7.95;;
4873;SDS011;2451;49.970;9.068;2023-08-24T00:10:01;10.00;;;7.53;;
4873;SDS011;2451;49.970;9.068;2023-08-24T00:12:29;8.75;;;6.75;;
4873;SDS011;2451;49.970;9.068;2023-08-24T00:14:55;9.13;;;7.30;;
4873;SDS011;2451;49.970;9.068;2023-08-24T00:17:20;9.25;;;7.07;;
4873;SDS011;2451;49.970;9.068;2023-08-24T00:19:47;10.25;;;7.15;;
4873;SDS011;2451;49.970;9.068;2023-08-24T00:22:13;9.07;;;7.85;;
4873;SDS011;2451;49.970;9.068;2023-08-24T00:24:39;10.50;;;7.43;;
4873;SDS011;2451;49.970;9.068;2023-08-24T00:27:04;9.65;;;7.20;;
4873;SDS011;2451;49.970;9.068;2023-08-24T00:29:30;9.43;;;7.60;;
4873;SDS011;2451;49.970;9.068;2023-08-24T00:31:55;9.75;;;7.95;;
4873;SDS011;2451;49.970;9.068;2023-08-24T00:34:22;9.35;;;7.50;;
4873;SDS011;2451;49.970;9.068;2023-08-24T00:36:48;9.68;;;7.65;;
4873;SDS011;2451;49.970;9.068;2023-08-24T00:39:13;9.70;;;7.85;;
4873;SDS011;2451;49.970;9.068;2023-08-24T00:41:40;9.32;;;7.28;;
4873;SDS011;2451;49.970;9.068;2023-08-24T00:44:06;9.27;;;8.00;;
4873;SDS011;2451;49.970;9.068;2023-08-24T00:46:32;10.38;;;8.02;;
4873;SDS011;2451;49.970;9.068;2023-08-24T00:48:59;9.27;;;7.93;;
4873;SDS011;2451;49.970;9.068;2023-08-24T00:51:25;9.25;;;7.75;;
4873;SDS011;2451;49.970;9.068;2023-08-24T00:53:50;11.40;;;7.63;;
4873;SDS011;2451;49.970;9.068;2023-08-24T00:56:16;10.20;;;7.97;;
4873;SDS011;2451;49.970;9.068;2023-08-24T00:58:42;9.32;;;7.55;;
4873;SDS011;2451;49.970;9.068;2023-08-24T01:01:09;11.38;;;7.85;;
4873;SDS011;2451;49.970;9.068;2023-08-24T01:03:35;10.18;;;8.27;;
4873;SDS011;2451;49.970;9.068;2023-08-24T01:06:00;9.88;;;8.05;;
4873;SDS011;2451;49.970;9.068;2023-08-24T01:08:26;10.82;;;8.00;;
4873;SDS011;2451;49.970;9.068;2023-08-24T01:10:55;11.23;;;8.25;;
4873;SDS011;2451;49.970;9.068;2023-08-24T01:13:37;8.95;;;8.02;;
4873;SDS011;2451;49.970;9.068;2023-08-24T01:16:16;11.27;;;8.18;;
4873;SDS011;2451;49.970;9.068;2023-08-24T01:18:45;11.98;;;8.38;;
4873;SDS011;2451;49.970;9.068;2023-08-24T01:21:13;11.02;;;8.07;;
4873;SDS011;2451;49.970;9.068;2023-08-24T01:28:44;10.52;;;8.52;;
4873;SDS011;2451;49.970;9.068;2023-08-24T01:31:11;10.55;;;8.05;;
4873;SDS011;2451;49.970;9.068;2023-08-24T01:33:42;11.15;;;8.43;;
4873;SDS011;2451;49.970;9.068;2023-08-24T01:36:08;10.98;;;8.15;;
4873;SDS011;2451;49.970;9.068;2023-08-24T01:38:36;10.65;;;8.02;;
4873;SDS011;2451;49.970;9.068;2023-08-24T01:41:16;9.93;;;8.02;;
4873;SDS011;2451;49.970;9.068;2023-08-24T01:43:51;10.20;;;8.00;;
4873;SDS011;2451;49.970;9.068;2023-08-24T01:46:19;11.27;;;8.85;;
4873;SDS011;2451;49.970;9.068;2023-08-24T01:48:47;11.07;;;8.13;;
4873;SDS011;2451;49.970;9.068;2023-08-24T01:51:13;11.23;;;8.68;;
4873;SDS011;2451;49.970;9.068;2023-08-24T01:53:40;12.07;;;8.75;;
4873;SDS011;2451;49.970;9.068;2023-08-24T01:56:12;9.95;;;8.52;;
4873;SDS011;2451;49.970;9.068;2023-08-24T01:58:40;11.30;;;8.70;;
4873;SDS011;2451;49.970;9.068;2023-08-24T02:01:06;9.10;;;8.10;;
4873;SDS011;2451;49.970;9.068;2023-08-24T02:03:35;11.00;;;9.00;;
4873;SDS011;2451;49.970;9.068;2023-08-24T02:06:01;11.45;;;8.95;;
4873;SDS011;2451;49.970;9.068;2023-08-24T02:08:27;12.85;;;9.18;;
4873;SDS011;2451;49.970;9.068;2023-08-24T02:10:52;10.00;;;9.00;;
4873;SDS011;2451;49.970;9.068;2023-08-24T02:13:18;12.38;;;8.77;;
4873;SDS011;2451;49.970;9.068;2023-08-24T02:15:43;11.10;;;9.25;;
4873;SDS011;2451;49.970;9.068;2023-08-24T02:18:09;11.65;;;8.70;;
4873;SDS011;2451;49.970;9.068;2023-08-24T02:20:38;10.88;;;8.77;;
4873;SDS011;2451;49.970;9.068;2023-08-24T02:23:04;11.07;;;8.40;;
4873;SDS011;2451;49.970;9.068;2023-08-24T02:25:30;11.15;;;9.00;;
4873;SDS011;2451;49.970;9.068;2023-08-24T02:27:55;15.43;;;9.50;;
4873;SDS011;2451;49.970;9.068;2023-08-24T02:30:21;9.85;;;8.88;;
4873;SDS011;2451;49.970;9.068;2023-08-24T02:32:46;11.77;;;8.85;;
4873;SDS011;2451;49.970;9.068;2023-08-24T02:35:12;10.38;;;8.82;;
4873;SDS011;2451;49.970;9.068;2023-08-24T02:37:37;13.43;;;9.55;;
4873;SDS011;2451;49.970;9.068;2023-08-24T02:40:03;11.23;;;9.15;;
4873;SDS011;2451;49.970;9.068;2023-08-24T02:42:33;9.98;;;8.98;;
4873;SDS011;2451;49.970;9.068;2023-08-24T02:44:58;9.88;;;8.45;;
4873;SDS011;2451;49.970;9.068;2023-08-24T02:47:24;10.82;;;8.95;;
4873;SDS011;2451;49.970;9.068;2023-08-24T02:49:50;11.05;;;8.93;;
4873;SDS011;2451;49.970;9.068;2023-08-24T02:52:15;11.88;;;8.48;;
4873;SDS011;2451;49.970;9.068;2023-08-24T02:54:41;10.93;;;9.23;;
4873;SDS011;2451;49.970;9.068;2023-08-24T02:57:07;9.48;;;8.32;;
4873;SDS011;2451;49.970;9.068;2023-08-24T02:59:32;11.43;;;9.75;;
4873;SDS011;2451;49.970;9.068;2023-08-24T03:01:58;10.65;;;9.30;;
4873;SDS011;2451;49.970;9.068;2023-08-24T03:04:23;10.52;;;9.07;;
4873;SDS011;2451;49.970;9.068;2023-08-24T03:06:49;10.35;;;9.05;;
4873;SDS011;2451;49.970;9.068;2023-08-24T03:09:14;10.10;;;8.95;;
4873;SDS011;2451;49.970;9.068;2023-08-24T03:11:40;10.10;;;8.40;;
4873;SDS011;2451;49.970;9.068;2023-08-24T03:14:06;10.48;;;7.85;;
4873;SDS011;2451;49.970;9.068;2023-08-24T03:16:31;12.02;;;8.55;;
4873;SDS011;2451;49.970;9.068;2023-08-24T03:18:57;10.32;;;8.40;;
4873;SDS011;2451;49.970;9.068;2023-08-24T03:21:23;9.25;;;7.82;;
4873;SDS011;2451;49.970;9.068;2023-08-24T03:23:48;13.65;;;8.20;;
4873;SDS011;2451;49.970;9.068;2023-08-24T03:26:14;12.18;;;7.65;;
4873;SDS011;2451;49.970;9.068;2023-08-24T03:28:41;12.85;;;7.50;;
4873;SDS011;2451;49.970;9.068;2023-08-24T03:31:07;9.68;;;7.35;;
4873;SDS011;2451;49.970;9.068;2023-08-24T03:33:33;10.27;;;8.35;;
4873;SDS011;2451;49.970;9.068;2023-08-24T03:35:59;13.32;;;9.30;;
4873;SDS011;2451;49.970;9.068;2023-08-24T03:38:25;16.45;;;9.18;;
4873;SDS011;2451;49.970;9.068;2023-08-24T03:40:51;17.23;;;8.43;;
4873;SDS011;2451;49.970;9.068;2023-08-24T03:43:17;13.55;;;8.45;;
4873;SDS011;2451;49.970;9.068;2023-08-24T03:45:42;12.63;;;8.50;;
4873;SDS011;2451;49.970;9.068;2023-08-24T03:48:09;10.70;;;8.27;;
4873;SDS011;2451;49.970;9.068;2023-08-24T03:50:34;9.68;;;7.97;;
4873;SDS011;2451;49.970;9.068;2023-08-24T03:53:00;10.52;;;8.77;;
4873;SDS011;2451;49.970;9.068;2023-08-24T03:55:25;9.07;;;8.05;;
4873;SDS011;2451;49.970;9.068;2023-08-24T03:57:51;9.68;;;8.75;;
4873;SDS011;2451;49.970;9.068;2023-08-24T04:00:16;11.77;;;8.85;;
4873;SDS011;2451;49.970;9.068;2023-08-24T04:02:42;11.18;;;8.70;;
4873;SDS011;2451;49.970;9.068;2023-08-24T04:05:08;11.65;;;9.48;;
4873;SDS011;2451;49.970;9.068;2023-08-24T04:07:34;11.60;;;9.63;;
4873;SDS011;2451;49.970;9.068;2023-08-24T04:10:02;11.73;;;9.13;;
4873;SDS011;2451;49.970;9.068;2023-08-24T04:12:29;14.03;;;9.50;;
4873;SDS011;2451;49.970;9.068;2023-08-24T04:14:55;14.13;;;8.98;;
4873;SDS011;2451;49.970;9.068;2023-08-24T04:17:22;11.82;;;9.65;;
4873;SDS011;2451;49.970;9.068;2023-08-24T04:19:48;12.50;;;10.15;;
4873;SDS011;2451;49.970;9.068;2023-08-24T04:22:13;12.18;;;10.70;;
4873;SDS011;2451;49.970;9.068;2023-08-24T04:24:39;10.95;;;9.70;;
4873;SDS011;2451;49.970;9.068;2023-08-24T04:27:05;12.77;;;10.05;;
4873;SDS011;2451;49.970;9.068;2023-08-24T04:29:31;14.75;;;9.80;;
4873;SDS011;2451;49.970;9.068;2023-08-24T04:31:57;11.90;;;10.57;;
4873;SDS011;2451;49.970;9.068;2023-08-24T04:34:22;11.20;;;10.00;;
4873;SDS011;2451;49.970;9.068;2023-08-24T04:36:48;12.20;;;10.57;;
4873;SDS011;2451;49.970;9.068;2023-08-24T04:39:13;12.13;;;9.82;;
4873;SDS011;2451;49.970;9.068;2023-08-24T04:41:39;11.73;;;10.05;;
4873;SDS011;2451;49.970;9.068;2023-08-24T04:44:04;11.18;;;9.77;;
4873;SDS011;2451;49.970;9.068;2023-08-24T04:46:32;10.80;;;9.32;;
4873;SDS011;2451;49.970;9.068;2023-08-24T04:48:58;11.88;;;10.00;;
4873;SDS011;2451;49.970;9.068;2023-08-24T04:51:23;15.18;;;9.85;;
4873;SDS011;2451;49.970;9.068;2023-08-24T04:53:49;13.77;;;9.48;;
4873;SDS011;2451;49.970;9.068;2023-08-24T04:56:14;19.33;;;9.85;;
4873;SDS011;2451;49.970;9.068;2023-08-24T04:58:40;16.10;;;8.90;;
4873;SDS011;2451;49.970;9.068;2023-08-24T05:01:26;17.38;;;9.27;;
4873;SDS011;2451;49.970;9.068;2023-08-24T05:06:18;12.95;;;9.05;;
4873;SDS011;2451;49.970;9.068;2023-08-24T05:08:44;13.85;;;8.60;;
4873;SDS011;2451;49.970;9.068;2023-08-24T05:11:10;11.88;;;9.05;;
4873;SDS011;2451;49.970;9.068;2023-08-24T05:13:44;14.50;;;9.68;;
4873;SDS011;2451;49.970;9.068;2023-08-24T05:16:10;10.80;;;8.85;;
4873;SDS011;2451;49.970;9.068;2023-08-24T05:18:36;13.88;;;8.75;;
4873;SDS011;2451;49.970;9.068;2023-08-24T05:21:02;19.70;;;8.90;;
4873;SDS011;2451;49.970;9.068;2023-08-24T05:23:28;14.73;;;9.05;;
4873;SDS011;2451;49.970;9.068;2023-08-24T05:25:56;18.17;;;8.45;;
4873;SDS011;2451;49.970;9.068;2023-08-24T05:28:22;11.85;;;8.27;;
4873;SDS011;2451;49.970;9.068;2023-08-24T05:30:49;12.40;;;8.10;;
4873;SDS011;2451;49.970;9.068;2023-08-24T05:33:15;10.82;;;8.60;;
4873;SDS011;2451;49.970;9.068;2023-08-24T05:35:41;10.25;;;8.80;;
4873;SDS011;2451;49.970;9.068;2023-08-24T05:38:07;12.32;;;8.60;;
4873;SDS011;2451;49.970;9.068;2023-08-24T05:40:33;10.95;;;8.85;;
4873;SDS011;2451;49.970;9.068;2023-08-24T05:42:59;11.38;;;8.43;;
4873;SDS011;2451;49.970;9.068;2023-08-24T05:45:24;10.82;;;8.00;;
4873;SDS011;2451;49.970;9.068;2023-08-24T05:47:50;10.77;;;8.57;;
4873;SDS011;2451;49.970;9.068;2023-08-24T05:50:16;13.52;;;8.15;;
4873;SDS011;2451;49.970;9.068;2023-08-24T05:52:41;13.50;;;8.80;;
4873;SDS011;2451;49.970;9.068;2023-08-24T05:55:07;12.45;;;8.82;;
4873;SDS011;2451;49.970;9.068;2023-08-24T05:57:33;14.45;;;8.85;;
4873;SDS011;2451;49.970;9.068;2023-08-24T05:59:58;15.75;;;9.88;;
4873;SDS011;2451;49.970;9.068;2023-08-24T06:02:24;11.43;;;9.40;;
4873;SDS011;2451;49.970;9.068;2023-08-24T06:04:49;11.23;;;9.55;;
4873;SDS011;2451;49.970;9.068;2023-08-24T06:07:16;12.40;;;9.40;;
4873;SDS011;2451;49.970;9.068;2023-08-24T06:09:41;10.60;;;9.07;;
4873;SDS011;2451;49.970;9.068;2023-08-24T06:12:07;10.88;;;9.05;;
4873;SDS011;2451;49.970;9.068;2023-08-24T06:14:33;10.63;;;8.85;;
4873;SDS011;2451;49.970;9.068;2023-08-24T06:16:58;11.57;;;8.50;;
4873;SDS011;2451;49.970;9.068;2023-08-24T06:19:24;9.57;;;8.32;;
4873;SDS011;2451;49.970;9.068;2023-08-24T06:21:49;14.23;;;8.35;;
4873;SDS011;2451;49.970;9.068;2023-08-24T06:24:15;10.32;;;7.38;;
4873;SDS011;2451;49.970;9.068;2023-08-24T06:26:40;9.73;;;7.72;;
4873;SDS011;2451;49.970;9.068;2023-08-24T06:29:06;9.57;;;7.50;;
4873;SDS011;2451;49.970;9.068;2023-08-24T06:31:31;10.48;;;8.00;;
4873;SDS011;2451;49.970;9.068;2023-08-24T06:33:58;9.38;;;8.00;;
4873;SDS011;2451;49.970;9.068;2023-08-24T06:36:24;13.65;;;7.60;;
4873;SDS011;2451;49.970;9.068;2023-08-24T06:38:49;13.25;;;7.55;;
4873;SDS011;2451;49.970;9.068;2023-08-24T06:41:15;13.30;;;7.35;;
4873;SDS011;2451;49.970;9.068;2023-08-24T06:43:41;8.88;;;6.78;;
4873;SDS011;2451;49.970;9.068;2023-08-24T06:46:06;13.60;;;7.13;;
4873;SDS011;2451;49.970;9.068;2023-08-24T06:48:33;10.07;;;6.70;;
4873;SDS011;2451;49.970;9.068;2023-08-24T06:50:59;10.57;;;7.15;;
4873;SDS011;2451;49.970;9.068;2023-08-24T06:53:25;9.32;;;6.32;;
4873;SDS011;2451;49.970;9.068;2023-08-24T06:55:54;9.98;;;6.68;;
4873;SDS011;2451;49.970;9.068;2023-08-24T06:58:20;9.55;;;5.80;;
4873;SDS011;2451;49.970;9.068;2023-08-24T07:00:46;11.55;;;6.32;;
4873;SDS011;2451;49.970;9.068;2023-08-24T07:03:11;9.82;;;6.35;;
4873;SDS011;2451;49.970;9.068;2023-08-24T07:05:37;12.65;;;6.15;;
4873;SDS011;2451;49.970;9.068;2023-08-24T07:08:02;11.88;;;6.40;;
4873;SDS011;2451;49.970;9.068;2023-08-24T07:10:29;9.98;;;6.50;;
4873;SDS011;2451;49.970;9.068;2023-08-24T07:12:54;12.43;;;6.60;;
4873;SDS011;2451;49.970;9.068;2023-08-24T07:15:20;12.43;;;6.20;;
4873;SDS011;2451;49.970;9.068;2023-08-24T07:17:45;9.15;;;6.15;;
4873;SDS011;2451;49.970;9.068;2023-08-24T07:20:11;9.30;;;6.50;;
4873;SDS011;2451;49.970;9.068;2023-08-24T07:22:37;8.00;;;6.25;;
4873;SDS011;2451;49.970;9.068;2023-08-24T07:25:03;9.65;;;6.53;;
4873;SDS011;2451;49.970;9.068;2023-08-24T07:27:33;8.23;;;6.60;;
4873;SDS011;2451;49.970;9.068;2023-08-24T07:29:59;9.60;;;6.90;;
4873;SDS011;2451;49.970;9.068;2023-08-24T07:32:26;15.25;;;8.02;;
4873;SDS011;2451;49.970;9.068;2023-08-24T07:34:52;12.65;;;7.25;;
4873;SDS011;2451;49.970;9.068;2023-08-24T07:37:17;16.23;;;7.30;;
4873;SDS011;2451;49.970;9.068;2023-08-24T07:39:43;16.20;;;7.70;;
4873;SDS011;2451;49.970;9.068;2023-08-24T07:42:09;15.48;;;8.32;;
4873;SDS011;2451;49.970;9.068;2023-08-24T07:44:34;16.00;;;7.28;;
4873;SDS011;2451;49.970;9.068;2023-08-24T07:47:00;19.65;;;7.22;;
4873;SDS011;2451;49.970;9.068;2023-08-24T07:49:26;13.15;;;6.53;;
4873;SDS011;2451;49.970;9.068;2023-08-24T07:51:52;11.13;;;6.88;;
4873;SDS011;2451;49.970;9.068;2023-08-24T07:54:17;9.80;;;6.03;;
4873;SDS011;2451;49.970;9.068;2023-08-24T07:56:43;13.55;;;6.40;;
4873;SDS011;2451;49.970;9.068;2023-08-24T07:59:09;13.68;;;6.63;;
4873;SDS011;2451;49.970;9.068;2023-08-24T08:01:34;13.57;;;6.35;;
4873;SDS011;2451;49.970;9.068;2023-08-24T08:04:00;9.20;;;5.72;;
4873;SDS011;2451;49.970;9.068;2023-08-24T08:06:25;13.00;;;5.80;;
4873;SDS011;2451;49.970;9.068;2023-08-24T08:08:52;12.63;;;5.88;;
4873;SDS011;2451;49.970;9.068;2023-08-24T08:11:18;10.77;;;5.65;;
4873;SDS011;2451;49.970;9.068;2023-08-24T08:13:43;9.30;;;5.43;;
4873;SDS011;2451;49.970;9.068;2023-08-24T08:16:09;11.82;;;5.93;;
4873;SDS011;2451;49.970;9.068;2023-08-24T08:18:35;11.23;;;5.10;;
4873;SDS011;2451;49.970;9.068;2023-08-24T08:21:01;8.82;;;5.07;;
4873;SDS011;2451;49.970;9.068;2023-08-24T08:23:34;9.40;;;5.50;;
4873;SDS011;2451;49.970;9.068;2023-08-24T08:26:00;6.15;;;4.78;;
4873;SDS011;2451;49.970;9.068;2023-08-24T08:28:25;8.45;;;5.88;;
4873;SDS011;2451;49.970;9.068;2023-08-24T08:30:51;10.02;;;5.93;;
4873;SDS011;2451;49.970;9.068;2023-08-24T08:33:16;11.00;;;6.45;;
4873;SDS011;2451;49.970;9.068;2023-08-24T08:35:43;9.40;;;6.50;;
4873;SDS011;2451;49.970;9.068;2023-08-24T08:38:09;11.93;;;6.25;;
4873;SDS011;2451;49.970;9.068;2023-08-24T08:40:36;10.05;;;5.85;;
4873;SDS011;2451;49.970;9.068;2023-08-24T08:43:02;11.70;;;5.90;;
4873;SDS011;2451;49.970;9.068;2023-08-24T08:45:28;8.98;;;5.22;;
4873;SDS011;2451;49.970;9.068;2023-08-24T08:48:00;7.95;;;5.05;;
4873;SDS011;2451;49.970;9.068;2023-08-24T08:50:27;10.45;;;5.00;;
4873;SDS011;2451;49.970;9.068;2023-08-24T08:52:56;7.78;;;4.68;;
4873;SDS011;2451;49.970;9.068;2023-08-24T08:55:23;7.45;;;5.10;;
4873;SDS011;2451;49.970;9.068;2023-08-24T08:57:50;9.55;;;5.22;;
4873;SDS011;2451;49.970;9.068;2023-08-24T09:00:18;8.05;;;4.75;;
4873;SDS011;2451;49.970;9.068;2023-08-24T09:02:45;11.10;;;5.05;;
4873;SDS011;2451;49.970;9.068;2023-08-24T09:05:12;8.18;;;5.32;;
4873;SDS011;2451;49.970;9.068;2023-08-24T09:07:41;7.95;;;4.95;;
4873;SDS011;2451;49.970;9.068;2023-08-24T09:10:07;7.20;;;4.90;;
4873;SDS011;2451;49.970;9.068;2023-08-24T09:12:33;6.30;;;4.60;;
4873;SDS011;2451;49.970;9.068;2023-08-24T09:15:00;9.68;;;5.30;;
4873;SDS011;2451;49.970;9.068;2023-08-24T09:17:29;6.25;;;5.05;;
4873;SDS011;2451;49.970;9.068;2023-08-24T09:19:57;8.10;;;4.97;;
4873;SDS011;2451;49.970;9.068;2023-08-24T09:22:24;9.73;;;5.55;;
4873;SDS011;2451;49.970;9.068;2023-08-24T09:24:49;10.65;;;5.28;;
4873;SDS011;2451;49.970;9.068;2023-08-24T09:27:16;9.43;;;5.30;;
4873;SDS011;2451;49.970;9.068;2023-08-24T09:29:43;8.35;;;5.60;;
4873;SDS011;2451;49.970;9.068;2023-08-24T09:32:21;8.98;;;5.35;;
4873;SDS011;2451;49.970;9.068;2023-08-24T09:34:53;8.35;;;5.55;;
4873;SDS011;2451;49.970;9.068;2023-08-24T09:37:19;7.93;;;5.43;;
4873;SDS011;2451;49.970;9.068;2023-08-24T09:39:45;8.50;;;5.38;;
4873;SDS011;2451;49.970;9.068;2023-08-24T09:42:11;8.95;;;5.25;;
4873;SDS011;2451;49.970;9.068;2023-08-24T09:44:38;7.75;;;5.40;;
4873;SDS011;2451;49.970;9.068;2023-08-24T09:47:09;9.18;;;5.05;;
4873;SDS011;2451;49.970;9.068;2023-08-24T09:49:36;9.45;;;4.85;;
4873;SDS011;2451;49.970;9.068;2023-08-24T09:52:01;9.23;;;4.95;;
4873;SDS011;2451;49.970;9.068;2023-08-24T09:54:31;8.48;;;4.75;;
4873;SDS011;2451;49.970;9.068;2023-08-24T09:57:00;9.98;;;4.55;;
4873;SDS011;2451;49.970;9.068;2023-08-24T09:59:28;11.63;;;4.32;;
4873;SDS011;2451;49.970;9.068;2023-08-24T10:01:56;6.13;;;4.13;;
4873;SDS011;2451;49.970;9.068;2023-08-24T10:04:23;7.38;;;3.70;;
4873;SDS011;2451;49.970;9.068;2023-08-24T10:06:57;8.43;;;3.63;;
4873;SDS011;2451;49.970;9.068;2023-08-24T10:09:31;7.95;;;3.50;;
4873;SDS011;2451;49.970;9.068;2023-08-24T10:12:05;6.22;;;3.45;;
4873;SDS011;2451;49.970;9.068;2023-08-24T10:14:32;5.63;;;3.42;;
4873;SDS011;2451;49.970;9.068;2023-08-24T10:17:00;6.65;;;3.53;;
4873;SDS011;2451;49.970;9.068;2023-08-24T10:19:26;8.25;;;3.38;;
4873;SDS011;2451;49.970;9.068;2023-08-24T10:21:54;6.03;;;3.42;;
4873;SDS011;2451;49.970;9.068;2023-08-24T10:24:22;7.20;;;3.63;;
4873;SDS011;2451;49.970;9.068;2023-08-24T10:26:48;4.80;;;3.17;;
4873;SDS011;2451;49.970;9.068;2023-08-24T10:29:14;5.20;;;2.95;;
4873;SDS011;2451;49.970;9.068;2023-08-24T10:31:41;4.15;;;2.75;;
4873;SDS011;2451;49.970;9.068;2023-08-24T10:34:08;6.28;;;3.00;;
4873;SDS011;2451;49.970;9.068;2023-08-24T10:36:34;5.15;;;2.85;;
4873;SDS011;2451;49.970;9.068;2023-08-24T10:39:03;5.32;;;3.03;;
4873;SDS011;2451;49.970;9.068;2023-08-24T10:41:53;5.55;;;3.35;;
4873;SDS011;2451;49.970;9.068;2023-08-24T10:44:22;7.40;;;2.80;;
4873;SDS011;2451;49.970;9.068;2023-08-24T10:54:59;6.20;;;2.80;;
4873;SDS011;2451;49.970;9.068;2023-08-24T10:57:27;5.90;;;2.65;;
4873;SDS011;2451;49.970;9.068;2023-08-24T11:02:44;6.82;;;2.50;;
4873;SDS011;2451;49.970;9.068;2023-08-24T11:10:25;4.70;;;2.63;;
4873;SDS011;2451;49.970;9.068;2023-08-24T11:15:33;5.72;;;2.83;;
4873;SDS011;2451;49.970;9.068;2023-08-24T11:20:52;5.18;;;2.83;;
4873;SDS011;2451;49.970;9.068;2023-08-24T11:23:22;4.93;;;2.75;;
4873;SDS011;2451;49.970;9.068;2023-08-24T11:25:51;6.05;;;2.92;;
4873;SDS011;2451;49.970;9.068;2023-08-24T11:28:21;6.75;;;3.13;;
4873;SDS011;2451;49.970;9.068;2023-08-24T11:30:48;5.90;;;2.50;;
4873;SDS011;2451;49.970;9.068;2023-08-24T11:33:15;6.88;;;3.05;;
4873;SDS011;2451;49.970;9.068;2023-08-24T11:35:45;6.60;;;3.08;;
4873;SDS011;2451;49.970;9.068;2023-08-24T11:38:11;6.68;;;2.85;;
4873;SDS011;2451;49.970;9.068;2023-08-24T11:40:37;5.88;;;2.95;;
4873;SDS011;2451;49.970;9.068;2023-08-24T11:43:03;5.63;;;2.72;;
4873;SDS011;2451;49.970;9.068;2023-08-24T11:45:32;7.57;;;2.90;;
4873;SDS011;2451;49.970;9.068;2023-08-24T11:48:01;4.80;;;2.97;;
4873;SDS011;2451;49.970;9.068;2023-08-24T11:50:29;7.63;;;2.70;;
4873;SDS011;2451;49.970;9.068;2023-08-24T11:52:55;3.40;;;2.70;;
4873;SDS011;2451;49.970;9.068;2023-08-24T11:55:22;9.45;;;2.63;;
4873;SDS011;2451;49.970;9.068;2023-08-24T11:57:48;5.53;;;2.80;;
4873;SDS011;2451;49.970;9.068;2023-08-24T12:00:14;5.88;;;2.63;;
4873;SDS011;2451;49.970;9.068;2023-08-24T12:02:41;4.97;;;2.83;;
4873;SDS011;2451;49.970;9.068;2023-08-24T12:05:07;5.40;;;2.70;;
4873;SDS011;2451;49.970;9.068;2023-08-24T12:07:33;4.28;;;2.67;;
4873;SDS011;2451;49.970;9.068;2023-08-24T12:10:02;6.28;;;2.72;;
4873;SDS011;2451;49.970;9.068;2023-08-24T12:12:28;6.00;;;2.83;;
4873;SDS011;2451;49.970;9.068;2023-08-24T12:14:54;5.18;;;2.47;;
4873;SDS011;2451;49.970;9.068;2023-08-24T12:17:22;7.47;;;2.75;;
4873;SDS011;2451;49.970;9.068;2023-08-24T12:19:59;8.50;;;2.78;;
4873;SDS011;2451;49.970;9.068;2023-08-24T12:22:25;6.90;;;3.22;;
4873;SDS011;2451;49.970;9.068;2023-08-24T12:24:51;7.72;;;3.25;;
4873;SDS011;2451;49.970;9.068;2023-08-24T12:27:17;6.85;;;3.13;;
4873;SDS011;2451;49.970;9.068;2023-08-24T12:29:44;5.07;;;3.00;;
4873;SDS011;2451;49.970;9.068;2023-08-24T12:32:10;6.80;;;2.67;;
4873;SDS011;2451;49.970;9.068;2023-08-24T12:34:36;5.95;;;2.92;;
4873;SDS011;2451;49.970;9.068;2023-08-24T12:37:01;5.32;;;2.75;;
4873;SDS011;2451;49.970;9.068;2023-08-24T12:39:27;5.43;;;2.90;;
4873;SDS011;2451;49.970;9.068;2023-08-24T12:41:52;9.10;;;3.60;;
4873;SDS011;2451;49.970;9.068;2023-08-24T12:44:18;5.15;;;2.83;;
4873;SDS011;2451;49.970;9.068;2023-08-24T12:46:43;7.95;;;3.30;;
4873;SDS011;2451;49.970;9.068;2023-08-24T12:49:10;4.75;;;2.80;;
4873;SDS011;2451;49.970;9.068;2023-08-24T12:51:35;10.43;;;3.15;;
4873;SDS011;2451;49.970;9.068;2023-08-24T12:54:01;6.78;;;3.00;;
4873;SDS011;2451;49.970;9.068;2023-08-24T12:56:26;8.43;;;3.17;;
4873;SDS011;2451;49.970;9.068;2023-08-24T12:58:52;10.63;;;3.53;;
4873;SDS011;2451;49.970;9.068;2023-08-24T13:01:19;7.40;;;2.85;;
4873;SDS011;2451;49.970;9.068;2023-08-24T13:03:44;10.80;;;3.20;;
4873;SDS011;2451;49.970;9.068;2023-08-24T13:06:10;4.03;;;2.70;;
4873;SDS011;2451;49.970;9.068;2023-08-24T13:08:35;7.63;;;3.20;;
4873;SDS011;2451;49.970;9.068;2023-08-24T13:11:01;7.78;;;2.92;;
4873;SDS011;2451;49.970;9.068;2023-08-24T13:13:26;7.20;;;3.05;;
4873;SDS011;2451;49.970;9.068;2023-08-24T13:15:52;8.18;;;2.88;;
4873;SDS011;2451;49.970;9.068;2023-08-24T13:18:17;7.68;;;3.05;;
4873;SDS011;2451;49.970;9.068;2023-08-24T13:20:43;6.75;;;3.13;;
4873;SDS011;2451;49.970;9.068;2023-08-24T13:23:08;8.13;;;2.90;;
4873;SDS011;2451;49.970;9.068;2023-08-24T13:25:34;7.25;;;3.13;;
4873;SDS011;2451;49.970;9.068;2023-08-24T13:27:59;6.68;;;2.85;;
4873;SDS011;2451;49.970;9.068;2023-08-24T13:30:25;7.32;;;3.20;;
4873;SDS011;2451;49.970;9.068;2023-08-24T13:32:52;7.90;;;2.60;;
4873;SDS011;2451;49.970;9.068;2023-08-24T13:35:17;9.07;;;2.75;;
4873;SDS011;2451;49.970;9.068;2023-08-24T13:37:43;9.57;;;2.80;;
4873;SDS011;2451;49.970;9.068;2023-08-24T13:40:09;8.40;;;2.92;;
4873;SDS011;2451;49.970;9.068;2023-08-24T13:42:35;8.52;;;2.78;;
4873;SDS011;2451;49.970;9.068;2023-08-24T13:45:01;6.55;;;3.00;;
4873;SDS011;2451;49.970;9.068;2023-08-24T13:47:28;11.70;;;3.20;;
4873;SDS011;2451;49.970;9.068;2023-08-24T13:49:53;8.65;;;2.90;;
4873;SDS011;2451;49.970;9.068;2023-08-24T13:52:19;4.95;;;2.83;;
4873;SDS011;2451;49.970;9.068;2023-08-24T13:54:44;5.40;;;2.70;;
4873;SDS011;2451;49.970;9.068;2023-08-24T13:57:10;5.32;;;2.80;;
4873;SDS011;2451;49.970;9.068;2023-08-24T13:59:36;5.25;;;2.70;;
4873;SDS011;2451;49.970;9.068;2023-08-24T14:02:01;7.22;;;2.85;;
4873;SDS011;2451;49.970;9.068;2023-08-24T14:04:29;6.53;;;3.05;;
4873;SDS011;2451;49.970;9.068;2023-08-24T14:06:54;5.63;;;2.85;;
4873;SDS011;2451;49.970;9.068;2023-08-24T14:09:20;6.63;;;2.80;;
4873;SDS011;2451;49.970;9.068;2023-08-24T14:11:45;6.28;;;3.05;;
4873;SDS011;2451;49.970;9.068;2023-08-24T14:14:12;6.60;;;3.10;;
4873;SDS011;2451;49.970;9.068;2023-08-24T14:16:38;6.95;;;3.10;;
4873;SDS011;2451;49.970;9.068;2023-08-24T14:19:04;5.60;;;2.83;;
4873;SDS011;2451;49.970;9.068;2023-08-24T14:21:29;9.00;;;3.30;;
4873;SDS011;2451;49.970;9.068;2023-08-24T14:23:55;7.00;;;2.97;;
4873;SDS011;2451;49.970;9.068;2023-08-24T14:26:21;7.45;;;2.97;;
4873;SDS011;2451;49.970;9.068;2023-08-24T14:28:50;8.10;;;3.00;;
4873;SDS011;2451;49.970;9.068;2023-08-24T14:31:20;3.85;;;2.80;;
4873;SDS011;2451;49.970;9.068;2023-08-24T14:33:46;7.20;;;2.95;;
4873;SDS011;2451;49.970;9.068;2023-08-24T14:36:12;8.23;;;2.97;;
4873;SDS011;2451;49.970;9.068;2023-08-24T14:38:38;8.80;;;2.78;;
4873;SDS011;2451;49.970;9.068;2023-08-24T14:41:05;5.60;;;2.92;;
4873;SDS011;2451;49.970;9.068;2023-08-24T14:43:31;8.77;;;3.53;;
4873;SDS011;2451;49.970;9.068;2023-08-24T14:45:57;5.30;;;2.85;;
4873;SDS011;2451;49.970;9.068;2023-08-24T14:48:23;9.32;;;3.17;;
4873;SDS011;2451;49.970;9.068;2023-08-24T14:50:48;8.20;;;3.10;;
4873;SDS011;2451;49.970;9.068;2023-08-24T14:53:14;8.15;;;3.15;;
4873;SDS011;2451;49.970;9.068;2023-08-24T14:55:40;8.35;;;3.70;;
4873;SDS011;2451;49.970;9.068;2023-08-24T14:58:06;8.02;;;3.30;;
4873;SDS011;2451;49.970;9.068;2023-08-24T15:00:32;8.43;;;3.15;;
4873;SDS011;2451;49.970;9.068;2023-08-24T15:02:58;7.22;;;3.28;;
4873;SDS011;2451;49.970;9.068;2023-08-24T15:05:23;7.32;;;3.20;;
4873;SDS011;2451;49.970;9.068;2023-08-24T15:07:49;5.43;;;3.05;;
4873;SDS011;2451;49.970;9.068;2023-08-24T15:10:15;7.55;;;3.33;;
4873;SDS011;2451;49.970;9.068;2023-08-24T15:12:42;5.45;;;3.00;;
4873;SDS011;2451;49.970;9.068;2023-08-24T15:15:11;5.43;;;3.15;;
4873;SDS011;2451;49.970;9.068;2023-08-24T15:17:41;5.75;;;3.30;;
4873;SDS011;2451;49.970;9.068;2023-08-24T15:20:07;8.40;;;3.47;;
4873;SDS011;2451;49.970;9.068;2023-08-24T15:22:33;6.45;;;3.30;;
4873;SDS011;2451;49.970;9.068;2023-08-24T15:25:00;6.55;;;3.83;;
4873;SDS011;2451;49.970;9.068;2023-08-24T15:27:25;6.13;;;3.10;;
4873;SDS011;2451;49.970;9.068;2023-08-24T15:29:51;6.55;;;3.33;;
4873;SDS011;2451;49.970;9.068;2023-08-24T15:32:17;10.43;;;3.20;;